createdAt,value
2023-05-08T00:00:59.504Z,21.90
2023-05-08T00:03:27.229Z,25.42
2023-05-08T00:05:57.341Z,23.50
2023-05-08T00:08:24.801Z,24.02
2023-05-08T00:10:51.994Z,31.65
2023-05-08T00:13:19.316Z,31.80
2023-05-08T00:15:46.764Z,24.42
2023-05-08T00:18:14.065Z,25.65
2023-05-08T00:20:41.827Z,23.80
2023-05-08T00:23:09.241Z,26.30
2023-05-08T00:25:36.163Z,26.65
2023-05-08T00:28:03.517Z,24.33
2023-05-08T00:30:30.585Z,24.73
2023-05-08T00:32:58.300Z,22.65
2023-05-08T00:35:25.309Z,35.97
2023-05-08T00:37:52.878Z,31.50
2023-05-08T00:40:19.846Z,25.50
2023-05-08T00:42:47.406Z,26.40
2023-05-08T00:45:14.316Z,31.17
2023-05-08T00:47:45.384Z,24.85
2023-05-08T00:50:13.898Z,23.52
2023-05-08T00:52:41.600Z,22.40
2023-05-08T00:55:08.813Z,24.75
2023-05-08T00:57:36.381Z,25.15
2023-05-08T01:00:05.535Z,23.25
2023-05-08T01:02:33.880Z,22.83
2023-05-08T01:05:02.201Z,21.33
2023-05-08T01:07:29.424Z,22.55
2023-05-08T01:09:56.836Z,24.58
2023-05-08T01:12:50.873Z,21.65
2023-05-08T01:15:25.434Z,22.58
2023-05-08T01:17:58.820Z,21.02
2023-05-08T01:20:39.930Z,21.20
2023-05-08T01:23:30.992Z,22.38
2023-05-08T01:26:08.480Z,19.40
2023-05-08T01:28:50.897Z,26.48
2023-05-08T01:32:08.777Z,21.30
2023-05-08T01:34:58.600Z,17.20
2023-05-08T01:37:32.802Z,17.30
2023-05-08T01:40:11.585Z,23.30
2023-05-08T01:43:04.599Z,19.88
2023-05-08T01:45:40.700Z,21.08
2023-05-08T01:48:19.782Z,16.40
2023-05-08T01:50:52.816Z,20.73
2023-05-08T01:53:24.942Z,17.30
2023-05-08T01:58:24.305Z,17.42
2023-05-08T02:00:52.809Z,19.20
2023-05-08T02:03:22.657Z,18.48
2023-05-08T02:05:52.368Z,18.85
2023-05-08T02:08:22.621Z,17.80
2023-05-08T02:10:51.801Z,17.25
2023-05-08T02:13:21.528Z,16.17
2023-05-08T02:15:50.162Z,18.25
2023-05-08T02:18:21.826Z,18.13
2023-05-08T02:20:51.849Z,17.65
2023-05-08T02:23:20.902Z,16.92
2023-05-08T02:25:50.410Z,15.40
2023-05-08T02:28:18.876Z,16.23
2023-05-08T02:30:47.404Z,16.38
2023-05-08T02:33:16.127Z,16.13
2023-05-08T02:35:46.459Z,19.60
2023-05-08T02:38:15.747Z,19.23
2023-05-08T02:40:48.654Z,17.05
2023-05-08T02:43:16.125Z,20.80
2023-05-08T02:45:50.430Z,19.13
2023-05-08T02:48:51.167Z,19.23
2023-05-08T02:51:24.185Z,15.13
2023-05-08T02:54:16.457Z,21.77
2023-05-08T02:56:43.757Z,20.27
2023-05-08T02:59:22.251Z,15.95
2023-05-08T03:02:02.345Z,14.95
2023-05-08T03:04:36.471Z,16.13
2023-05-08T03:07:04.992Z,15.93
2023-05-08T03:09:41.697Z,19.58
2023-05-08T03:12:17.281Z,22.60
2023-05-08T03:14:52.025Z,18.58
2023-05-08T03:17:24.063Z,18.92
2023-05-08T03:19:58.117Z,22.38
2023-05-08T03:22:26.776Z,17.70
2023-05-08T03:24:56.582Z,17.80
2023-05-08T03:27:26.723Z,20.90
2023-05-08T03:29:57.068Z,18.02
2023-05-08T03:32:27.999Z,16.33
2023-05-08T03:34:58.728Z,20.70
2023-05-08T03:37:28.392Z,17.80
2023-05-08T03:39:56.508Z,16.85
2023-05-08T03:42:24.779Z,19.73
2023-05-08T03:44:53.335Z,14.40
2023-05-08T03:47:26.239Z,14.85
2023-05-08T03:49:54.314Z,15.40
2023-05-08T03:52:21.573Z,18.27
2023-05-08T03:54:48.810Z,14.35
2023-05-08T03:57:16.894Z,14.30
2023-05-08T04:00:06.427Z,14.15
2023-05-08T04:03:21.736Z,13.90
2023-05-08T04:05:56.871Z,15.88
2023-05-08T04:08:34.660Z,13.15
2023-05-08T04:11:29.052Z,11.57
2023-05-08T04:14:07.309Z,13.45
2023-05-08T04:16:45.868Z,16.33
2023-05-08T04:19:19.869Z,13.43
2023-05-08T04:21:50.216Z,10.93
2023-05-08T04:24:21.003Z,12.25
2023-05-08T04:26:49.128Z,11.70
2023-05-08T04:29:17.943Z,11.82
2023-05-08T04:31:46.259Z,11.95
2023-05-08T04:34:14.189Z,16.80
2023-05-08T04:36:41.567Z,11.93
2023-05-08T04:39:08.663Z,13.25
2023-05-08T04:41:36.152Z,14.27
2023-05-08T04:44:05.294Z,11.32
2023-05-08T04:46:32.997Z,13.15
2023-05-08T04:49:00.442Z,13.32
2023-05-08T04:51:29.611Z,10.60
2023-05-08T04:53:56.621Z,10.25
2023-05-08T04:56:23.840Z,12.25
2023-05-08T04:58:51.359Z,12.70
2023-05-08T05:01:19.036Z,11.20
2023-05-08T05:03:46.422Z,8.00
2023-05-08T05:06:13.999Z,9.23
2023-05-08T05:08:41.187Z,8.55
2023-05-08T05:11:08.517Z,8.40
2023-05-08T05:13:35.716Z,9.57
2023-05-08T05:16:03.243Z,7.90
2023-05-08T05:18:30.484Z,6.45
2023-05-08T05:20:59.165Z,8.85
2023-05-08T05:23:28.314Z,6.00
2023-05-08T05:25:55.890Z,7.50
2023-05-08T05:28:22.882Z,6.90
2023-05-08T05:30:50.132Z,6.68
2023-05-08T05:33:17.794Z,7.47
2023-05-08T05:35:45.346Z,7.43
2023-05-08T05:38:12.398Z,13.43
2023-05-08T05:40:40.089Z,7.30
2023-05-08T05:43:07.232Z,10.07
2023-05-08T05:45:34.964Z,7.72
2023-05-08T05:48:02.300Z,6.15
2023-05-08T05:50:31.491Z,10.15
2023-05-08T05:52:59.683Z,5.10
2023-05-08T05:55:27.843Z,6.45
2023-05-08T05:57:55.441Z,7.72
2023-05-08T06:00:22.996Z,7.60
2023-05-08T06:02:54.705Z,6.85
2023-05-08T06:05:23.303Z,6.28
2023-05-08T06:07:51.533Z,4.18
2023-05-08T06:10:19.440Z,4.38
2023-05-08T06:12:46.466Z,4.47
2023-05-08T06:15:15.323Z,4.32
2023-05-08T06:17:45.312Z,7.93
2023-05-08T06:20:13.794Z,8.10
2023-05-08T06:22:41.499Z,3.42
2023-05-08T06:25:09.828Z,5.80
2023-05-08T06:27:37.569Z,5.80
2023-05-08T06:30:08.805Z,4.22
2023-05-08T06:32:36.260Z,3.93
2023-05-08T06:35:03.974Z,4.07
2023-05-08T06:37:31.506Z,6.05
2023-05-08T06:40:10.931Z,6.57
2023-05-08T06:42:39.429Z,5.25
2023-05-08T06:45:10.855Z,7.18
2023-05-08T06:47:38.273Z,5.82
2023-05-08T06:50:06.425Z,5.95
2023-05-08T06:52:33.774Z,6.03
2023-05-08T06:55:01.118Z,7.00
2023-05-08T06:57:30.310Z,4.40
2023-05-08T06:59:57.741Z,4.28
2023-05-08T07:02:24.662Z,6.25
2023-05-08T07:04:52.073Z,6.30
2023-05-08T07:07:19.123Z,5.80
2023-05-08T07:09:46.366Z,2.67
2023-05-08T07:12:13.629Z,5.45
2023-05-08T07:14:42.497Z,4.57
2023-05-08T07:17:10.053Z,7.78
2023-05-08T07:19:38.424Z,5.07
2023-05-08T07:22:06.637Z,6.53
2023-05-08T07:24:35.320Z,6.05
2023-05-08T07:27:03.571Z,6.78
2023-05-08T07:29:31.742Z,5.43
2023-05-08T07:31:59.098Z,5.57
2023-05-08T07:34:26.965Z,3.92
2023-05-08T07:36:54.202Z,5.95
2023-05-08T07:39:22.616Z,4.35
2023-05-08T07:41:50.352Z,3.58
2023-05-08T07:44:17.689Z,5.85
2023-05-08T07:46:45.472Z,5.43
2023-05-08T07:49:12.892Z,7.32
2023-05-08T07:51:40.853Z,5.63
2023-05-08T07:54:08.614Z,6.20
2023-05-08T07:56:36.235Z,5.88
2023-05-08T07:59:03.557Z,5.05
2023-05-08T08:01:31.531Z,4.57
2023-05-08T08:03:59.398Z,4.53
2023-05-08T08:06:26.477Z,8.80
2023-05-08T08:08:53.966Z,9.20
2023-05-08T08:11:20.923Z,5.68
2023-05-08T08:13:48.347Z,5.68
2023-05-08T08:16:15.521Z,6.63
2023-05-08T08:18:43.321Z,5.47
2023-05-08T08:21:10.550Z,5.15
2023-05-08T08:23:38.411Z,3.88
2023-05-08T08:26:05.287Z,3.75
2023-05-08T08:28:34.635Z,5.47
2023-05-08T08:31:02.532Z,4.90
2023-05-08T08:33:31.471Z,4.30
2023-05-08T08:35:58.657Z,3.70
2023-05-08T08:38:26.661Z,4.80
2023-05-08T08:40:54.396Z,3.75
2023-05-08T08:43:21.661Z,4.68
2023-05-08T08:45:48.531Z,3.00
2023-05-08T08:48:16.550Z,4.50
2023-05-08T08:50:47.401Z,3.95
2023-05-08T08:53:33.890Z,4.70
2023-05-08T08:56:02.852Z,3.80
2023-05-08T08:58:51.101Z,4.65
2023-05-08T09:01:21.045Z,4.38
2023-05-08T09:03:49.946Z,7.90
2023-05-08T09:06:19.073Z,4.25
2023-05-08T09:08:47.841Z,4.13
2023-05-08T09:11:15.152Z,4.68
2023-05-08T09:13:43.230Z,8.00
2023-05-08T09:16:10.187Z,6.78
2023-05-08T09:18:38.020Z,5.35
2023-05-08T09:21:06.707Z,7.72
2023-05-08T09:23:36.528Z,5.38
2023-05-08T09:26:03.830Z,2.75
2023-05-08T09:28:31.178Z,2.85
2023-05-08T09:30:59.675Z,4.28
2023-05-08T09:33:28.966Z,4.85
2023-05-08T09:35:57.536Z,4.47
2023-05-08T09:38:37.984Z,5.03
2023-05-08T09:41:15.675Z,9.27
2023-05-08T09:43:45.303Z,4.50
2023-05-08T09:46:26.674Z,2.95
2023-05-08T09:51:22.999Z,4.10
2023-05-08T09:53:55.214Z,4.28
2023-05-08T09:56:37.077Z,5.32
2023-05-08T09:59:21.853Z,4.03
2023-05-08T10:01:48.977Z,7.13
2023-05-08T10:04:16.835Z,6.80
2023-05-08T10:06:44.567Z,4.25
2023-05-08T10:09:14.363Z,7.65
2023-05-08T10:11:52.878Z,5.95
2023-05-08T10:14:20.989Z,6.22
2023-05-08T10:16:50.461Z,6.82
2023-05-08T10:19:20.169Z,5.82
2023-05-08T10:21:58.185Z,4.82
2023-05-08T10:24:33.446Z,3.80
2023-05-08T10:27:27.945Z,6.63
2023-05-08T10:29:59.714Z,4.72
2023-05-08T10:32:30.091Z,3.67
2023-05-08T10:35:00.144Z,5.95
2023-05-08T10:37:29.950Z,6.93
2023-05-08T10:39:58.731Z,8.90
2023-05-08T10:42:27.749Z,6.63
2023-05-08T10:44:55.730Z,8.57
2023-05-08T10:47:51.111Z,5.13
2023-05-08T10:50:56.947Z,4.65
2023-05-08T10:53:45.663Z,4.25
2023-05-08T10:56:13.093Z,2.58
2023-05-08T10:58:40.444Z,4.22
2023-05-08T11:01:08.205Z,3.97
2023-05-08T11:03:46.676Z,2.55
2023-05-08T11:06:14.790Z,2.88
2023-05-08T11:08:49.015Z,4.72
2023-05-08T11:11:29.705Z,5.28
2023-05-08T11:14:08.939Z,6.35
2023-05-08T11:16:54.513Z,4.10
2023-05-08T11:19:26.394Z,2.72
2023-05-08T11:22:14.209Z,6.07
2023-05-08T11:24:48.844Z,2.85
2023-05-08T11:27:17.226Z,2.90
2023-05-08T11:29:47.630Z,2.60
2023-05-08T11:32:15.094Z,7.00
2023-05-08T11:34:42.544Z,5.18
2023-05-08T11:37:33.213Z,3.20
2023-05-08T11:40:38.795Z,6.13
2023-05-08T11:43:41.699Z,4.40
2023-05-08T11:46:17.870Z,5.45
2023-05-08T11:48:45.614Z,3.58
2023-05-08T11:51:13.835Z,2.70
2023-05-08T11:53:41.414Z,3.40
2023-05-08T11:56:08.819Z,7.65
2023-05-08T11:58:36.802Z,5.30
2023-05-08T12:01:04.341Z,3.15
2023-05-08T12:03:32.477Z,5.40
2023-05-08T12:05:59.990Z,3.53
2023-05-08T12:08:27.427Z,3.38
2023-05-08T12:10:57.985Z,4.95
2023-05-08T12:13:28.208Z,5.43
2023-05-08T12:16:01.137Z,7.43
2023-05-08T12:18:29.783Z,6.25
2023-05-08T12:20:59.127Z,4.63
2023-05-08T12:23:29.564Z,5.47
2023-05-08T12:26:01.290Z,5.60
2023-05-08T12:28:29.894Z,5.38
2023-05-08T12:30:57.945Z,3.13
2023-05-08T12:33:26.584Z,4.22
2023-05-08T12:35:53.521Z,5.80
2023-05-08T12:38:26.147Z,3.90
2023-05-08T12:40:55.536Z,5.63
2023-05-08T12:43:32.213Z,4.80
2023-05-08T12:45:59.571Z,2.67
2023-05-08T12:48:27.405Z,3.45
2023-05-08T12:50:55.214Z,2.92
2023-05-08T12:53:22.644Z,3.50
2023-05-08T12:55:54.828Z,5.50
2023-05-08T12:58:27.853Z,5.97
2023-05-08T13:01:10.403Z,3.67
2023-05-08T13:03:38.781Z,5.97
2023-05-08T13:06:06.485Z,8.00
2023-05-08T13:08:36.184Z,4.85
2023-05-08T13:11:05.297Z,5.47
2023-05-08T13:13:35.405Z,7.97
2023-05-08T13:16:05.291Z,7.10
2023-05-08T13:18:34.113Z,4.63
2023-05-08T13:21:02.392Z,5.10
2023-05-08T13:23:30.422Z,3.67
2023-05-08T13:25:59.013Z,3.85
2023-05-08T13:28:27.585Z,8.38
2023-05-08T13:30:55.818Z,6.68
2023-05-08T13:33:23.657Z,5.35
2023-05-08T13:35:50.971Z,2.78
2023-05-08T13:38:18.170Z,6.53
2023-05-08T13:40:45.973Z,5.63
2023-05-08T13:43:13.152Z,6.78
2023-05-08T13:45:40.366Z,5.93
2023-05-08T13:48:08.253Z,3.97
2023-05-08T13:50:35.661Z,7.85
2023-05-08T13:53:04.900Z,4.18
2023-05-08T13:55:32.220Z,3.05
2023-05-08T13:57:59.566Z,2.88
2023-05-08T14:00:28.243Z,4.38
2023-05-08T14:02:56.011Z,3.65
2023-05-08T14:05:23.335Z,4.45
2023-05-08T14:07:51.384Z,4.30
2023-05-08T14:10:19.378Z,6.22
2023-05-08T14:12:46.872Z,2.63
2023-05-08T14:15:15.263Z,4.63
2023-05-08T14:17:43.225Z,5.53
2023-05-08T14:20:12.023Z,8.23
2023-05-08T14:22:41.101Z,4.15
2023-05-08T14:25:09.035Z,7.38
2023-05-08T14:27:36.764Z,3.85
2023-05-08T14:30:04.185Z,4.22
2023-05-08T14:32:31.594Z,4.30
2023-05-08T14:34:58.717Z,3.50
2023-05-08T14:37:26.685Z,3.65
2023-05-08T14:39:54.231Z,6.05
2023-05-08T14:42:23.696Z,5.80
2023-05-08T14:44:51.677Z,4.88
2023-05-08T14:47:19.166Z,3.40
2023-05-08T14:49:46.581Z,6.03
2023-05-08T14:52:14.511Z,2.63
2023-05-08T14:54:41.955Z,3.53
2023-05-08T14:57:09.493Z,4.15
2023-05-08T14:59:37.076Z,2.55
2023-05-08T15:02:05.295Z,6.28
2023-05-08T15:04:32.499Z,2.85
2023-05-08T15:07:00.366Z,2.17
2023-05-08T15:09:27.299Z,3.63
2023-05-08T15:11:54.803Z,3.20
2023-05-08T15:14:22.480Z,7.63
2023-05-08T15:16:49.822Z,4.40
2023-05-08T15:19:17.567Z,4.13
2023-05-08T15:21:44.826Z,7.07
2023-05-08T15:24:12.617Z,3.85
2023-05-08T15:26:40.467Z,3.40
2023-05-08T15:29:07.489Z,3.50
2023-05-08T15:31:35.132Z,2.63
2023-05-08T15:34:02.107Z,4.28
2023-05-08T15:36:32.036Z,5.45
2023-05-08T15:38:59.137Z,3.88
2023-05-08T15:41:26.363Z,7.80
2023-05-08T15:43:53.708Z,3.92
2023-05-08T15:46:21.024Z,4.22
2023-05-08T15:48:48.394Z,4.28
2023-05-08T15:51:16.082Z,5.72
2023-05-08T15:53:43.215Z,3.08
2023-05-08T15:56:10.830Z,7.18
2023-05-08T15:58:39.066Z,3.38
2023-05-08T16:01:06.670Z,3.30
2023-05-08T16:03:33.979Z,4.05
2023-05-08T16:06:01.779Z,3.03
2023-05-08T16:08:30.252Z,4.75
2023-05-08T16:10:58.096Z,2.72
2023-05-08T16:13:25.441Z,5.50
2023-05-08T16:15:53.015Z,6.53
2023-05-08T16:18:20.125Z,4.63
2023-05-08T16:20:47.664Z,8.00
2023-05-08T16:23:15.037Z,4.65
2023-05-08T16:25:42.464Z,4.57
2023-05-08T16:28:09.705Z,5.35
2023-05-08T16:30:37.054Z,6.05
2023-05-08T16:33:04.173Z,6.82
2023-05-08T16:35:33.500Z,5.68
2023-05-08T16:38:00.825Z,4.97
2023-05-08T16:40:28.075Z,17.08
2023-05-08T16:42:55.396Z,5.82
2023-05-08T16:45:22.905Z,10.50
2023-05-08T16:47:50.631Z,7.40
2023-05-08T16:50:17.933Z,6.63
2023-05-08T16:52:45.446Z,7.38
2023-05-08T16:55:13.606Z,5.20
2023-05-08T16:57:40.898Z,4.88
2023-05-08T17:00:08.913Z,6.20
2023-05-08T17:02:35.998Z,4.55
2023-05-08T17:05:03.936Z,3.65
2023-05-08T17:07:31.100Z,4.25
2023-05-08T17:09:59.191Z,4.45
2023-05-08T17:12:26.150Z,4.20
2023-05-08T17:14:53.858Z,4.47
2023-05-08T17:17:20.903Z,6.45
2023-05-08T17:19:48.778Z,5.85
2023-05-08T17:22:16.500Z,6.80
2023-05-08T17:24:44.326Z,6.93
2023-05-08T17:27:11.546Z,4.60
2023-05-08T17:29:39.186Z,8.45
2023-05-08T17:32:06.967Z,6.00
2023-05-08T17:34:34.985Z,6.85
2023-05-08T17:37:02.218Z,5.80
2023-05-08T17:39:29.491Z,17.55
2023-05-08T17:41:56.842Z,6.53
2023-05-08T17:44:24.765Z,4.13
2023-05-08T17:46:51.962Z,7.28
2023-05-08T17:49:19.669Z,5.55
2023-05-08T17:51:48.098Z,4.97
2023-05-08T17:54:15.475Z,8.88
2023-05-08T17:56:42.501Z,5.18
2023-05-08T17:59:09.886Z,4.63
2023-05-08T18:01:37.278Z,6.43
2023-05-08T18:04:04.852Z,5.15
2023-05-08T18:06:32.274Z,5.07
2023-05-08T18:08:59.767Z,9.77
2023-05-08T18:11:27.097Z,6.38
2023-05-08T18:13:54.793Z,3.97
2023-05-08T18:16:23.027Z,9.32
2023-05-08T18:18:50.427Z,9.98
2023-05-08T18:21:18.000Z,5.50
2023-05-08T18:23:45.337Z,6.93
2023-05-08T18:26:17.304Z,7.10
2023-05-08T18:28:44.954Z,6.53
2023-05-08T18:31:13.476Z,8.93
2023-05-08T18:33:41.250Z,8.95
2023-05-08T18:36:08.796Z,4.32
2023-05-08T18:38:36.465Z,3.15
2023-05-08T18:41:05.458Z,5.00
2023-05-08T18:43:33.869Z,4.47
2023-05-08T18:46:08.202Z,6.13
2023-05-08T18:48:36.444Z,7.55
2023-05-08T18:51:03.965Z,7.43
2023-05-08T18:53:33.195Z,4.57
2023-05-08T18:56:03.316Z,6.75
2023-05-08T18:58:31.356Z,4.43
2023-05-08T19:00:59.106Z,4.93
2023-05-08T19:03:27.206Z,9.13
2023-05-08T19:05:55.174Z,8.98
2023-05-08T19:08:23.034Z,11.82
2023-05-08T19:10:50.158Z,6.60
2023-05-08T19:13:20.056Z,9.27
2023-05-08T19:15:47.212Z,9.68
2023-05-08T19:18:14.867Z,5.32
2023-05-08T19:20:43.521Z,8.02
2023-05-08T19:23:10.878Z,7.03
2023-05-08T19:25:38.338Z,8.40
2023-05-08T19:28:06.063Z,8.05
2023-05-08T19:30:33.169Z,11.00
2023-05-08T19:33:00.842Z,7.57
2023-05-08T19:35:28.388Z,4.78
2023-05-08T19:37:56.175Z,8.60
2023-05-08T19:40:24.314Z,7.70
2023-05-08T19:42:51.752Z,9.25
2023-05-08T19:45:19.207Z,7.13
2023-05-08T19:47:50.354Z,5.30
2023-05-08T19:50:18.875Z,8.75
2023-05-08T19:52:48.107Z,7.35
2023-05-08T19:55:16.531Z,9.77
2023-05-08T19:57:44.436Z,8.18
2023-05-08T20:00:12.651Z,8.18
2023-05-08T20:02:40.629Z,10.75
2023-05-08T20:07:38.659Z,8.82
2023-05-08T20:10:06.425Z,13.98
2023-05-08T20:12:33.700Z,5.05
2023-05-08T20:15:00.860Z,8.20
2023-05-08T20:17:28.563Z,6.53
2023-05-08T20:19:55.557Z,6.32
2023-05-08T20:22:23.244Z,6.55
2023-05-08T20:24:50.293Z,8.30
2023-05-08T20:27:17.962Z,6.40
2023-05-08T20:29:46.746Z,7.57
2023-05-08T20:32:16.600Z,7.05
2023-05-08T20:34:44.794Z,8.98
2023-05-08T20:37:12.156Z,8.15
2023-05-08T20:39:39.443Z,7.07
2023-05-08T20:42:07.445Z,6.57
2023-05-08T20:44:34.404Z,7.68
2023-05-08T20:47:01.989Z,8.00
2023-05-08T20:49:29.163Z,14.15
2023-05-08T20:51:56.487Z,15.23
2023-05-08T20:54:23.506Z,9.35
2023-05-08T20:56:50.860Z,7.93
2023-05-08T20:59:18.854Z,9.73
2023-05-08T21:01:47.871Z,9.60
2023-05-08T21:04:15.422Z,6.15
2023-05-08T21:06:42.689Z,9.50
2023-05-08T21:09:09.920Z,6.97
2023-05-08T21:11:37.128Z,6.65
2023-05-08T21:14:04.370Z,9.77
2023-05-08T21:16:31.701Z,8.32
2023-05-08T21:18:58.824Z,7.13
2023-05-08T21:21:26.082Z,24.65
2023-05-08T21:23:53.509Z,13.05
2023-05-08T21:26:23.859Z,9.77
2023-05-08T21:28:52.549Z,11.88
2023-05-08T21:31:20.206Z,19.50
2023-05-08T21:33:47.508Z,13.32
2023-05-08T21:36:14.869Z,11.60
2023-05-08T21:38:42.222Z,11.60
2023-05-08T21:41:09.467Z,14.75
2023-05-08T21:43:36.901Z,15.48
2023-05-08T21:46:06.147Z,11.75
2023-05-08T21:48:33.828Z,19.38
2023-05-08T21:51:01.697Z,16.73
2023-05-08T21:53:29.029Z,15.75
2023-05-08T21:55:56.382Z,13.15
2023-05-08T21:58:23.530Z,15.35
2023-05-08T22:00:51.046Z,10.57
2023-05-08T22:03:18.692Z,14.57
2023-05-08T22:05:46.008Z,11.43
2023-05-08T22:08:13.242Z,11.35
2023-05-08T22:10:40.657Z,17.42
2023-05-08T22:13:08.386Z,13.50
2023-05-08T22:15:36.177Z,18.15
2023-05-08T22:18:04.070Z,15.77
2023-05-08T22:20:31.357Z,11.02
2023-05-08T22:22:58.571Z,14.40
2023-05-08T22:25:26.828Z,15.00
2023-05-08T22:27:53.987Z,19.40
2023-05-08T22:30:21.857Z,23.33
2023-05-08T22:32:55.279Z,20.17
2023-05-08T22:35:24.715Z,21.95
2023-05-08T22:37:52.921Z,18.67
2023-05-08T22:40:21.725Z,21.67
2023-05-08T22:42:51.640Z,18.52
2023-05-08T22:45:20.015Z,23.52
2023-05-08T22:47:47.062Z,22.38
2023-05-08T22:50:14.579Z,19.80
2023-05-08T22:52:41.703Z,20.17
2023-05-08T22:55:09.570Z,26.58
2023-05-08T22:57:36.538Z,26.55
2023-05-08T23:00:06.095Z,26.70
2023-05-08T23:02:33.840Z,21.38
2023-05-08T23:05:02.165Z,21.27
2023-05-08T23:07:30.090Z,19.15
2023-05-08T23:09:57.284Z,28.05
2023-05-08T23:12:24.499Z,29.10
2023-05-08T23:14:52.332Z,21.58
2023-05-08T23:17:19.414Z,24.30
2023-05-08T23:19:47.279Z,24.08
2023-05-08T23:22:14.148Z,25.20
2023-05-08T23:24:41.794Z,26.13
2023-05-08T23:27:08.808Z,22.65
2023-05-08T23:29:36.093Z,21.58
2023-05-08T23:32:03.366Z,22.15
2023-05-08T23:34:30.601Z,26.17
2023-05-08T23:36:58.016Z,25.10
2023-05-08T23:39:25.417Z,24.05
2023-05-08T23:41:53.141Z,21.27
2023-05-08T23:44:21.094Z,21.35
2023-05-08T23:46:48.334Z,29.55
2023-05-08T23:49:15.618Z,24.85
2023-05-08T23:51:42.576Z,22.98
2023-05-08T23:54:09.874Z,24.70
2023-05-08T23:56:37.265Z,25.58
2023-05-08T23:59:04.463Z,32.72
